createdAt,value
2023-04-29T00:02:16.403Z,6.52
2023-04-29T00:04:49.020Z,6.54
2023-04-29T00:07:18.678Z,6.54
2023-04-29T00:09:55.192Z,6.55
2023-04-29T00:12:26.415Z,6.56
2023-04-29T00:14:56.757Z,6.58
2023-04-29T00:17:26.429Z,6.58
2023-04-29T00:19:55.136Z,6.60
2023-04-29T00:22:26.300Z,6.61
2023-04-29T00:24:57.402Z,6.59
2023-04-29T00:27:27.632Z,6.58
2023-04-29T00:29:58.156Z,6.59
2023-04-29T00:32:27.439Z,6.59
2023-04-29T00:34:57.872Z,6.58
2023-04-29T00:37:27.427Z,6.57
2023-04-29T00:39:58.312Z,6.57
2023-04-29T00:42:29.569Z,6.57
2023-04-29T00:45:01.664Z,6.59
2023-04-29T00:47:31.031Z,6.57
2023-04-29T00:50:00.030Z,6.55
2023-04-29T00:52:56.131Z,6.52
2023-04-29T00:55:26.772Z,6.52
2023-04-29T00:57:57.444Z,6.54
2023-04-29T01:00:30.947Z,6.55
2023-04-29T01:03:00.197Z,6.55
2023-04-29T01:05:33.317Z,6.54
2023-04-29T01:08:06.099Z,6.50
2023-04-29T01:10:41.107Z,6.47
2023-04-29T01:13:14.818Z,6.44
2023-04-29T01:16:02.105Z,6.41
2023-04-29T01:18:42.750Z,6.37
2023-04-29T01:21:12.183Z,6.32
2023-04-29T01:23:42.757Z,6.28
2023-04-29T01:26:13.441Z,6.24
2023-04-29T01:29:24.440Z,6.19
2023-04-29T01:32:06.696Z,6.16
2023-04-29T01:34:45.446Z,6.14
2023-04-29T01:37:29.341Z,6.11
2023-04-29T01:40:02.974Z,6.09
2023-04-29T01:42:34.744Z,6.07
2023-04-29T01:45:11.760Z,6.04
2023-04-29T01:47:43.490Z,6.00
2023-04-29T01:50:13.505Z,5.98
2023-04-29T01:52:43.975Z,5.96
2023-04-29T01:55:15.628Z,5.97
2023-04-29T01:58:03.898Z,5.96
2023-04-29T02:00:52.378Z,5.93
2023-04-29T02:03:24.115Z,5.91
2023-04-29T02:05:58.308Z,5.90
2023-04-29T02:08:28.078Z,5.86
2023-04-29T02:10:58.885Z,5.82
2023-04-29T02:13:37.968Z,5.83
2023-04-29T02:16:10.972Z,5.82
2023-04-29T02:18:43.249Z,5.78
2023-04-29T02:21:12.770Z,5.77
2023-04-29T02:23:42.499Z,5.75
2023-04-29T02:26:11.564Z,5.73
2023-04-29T02:28:40.406Z,5.74
2023-04-29T02:31:24.216Z,5.71
2023-04-29T02:33:53.197Z,5.70
2023-04-29T02:36:25.166Z,5.70
2023-04-29T02:38:57.287Z,5.70
2023-04-29T02:41:27.302Z,5.70
2023-04-29T02:43:58.500Z,5.71
2023-04-29T02:46:31.019Z,5.72
2023-04-29T02:49:01.732Z,5.74
2023-04-29T02:51:31.439Z,5.75
2023-04-29T02:54:00.960Z,5.77
2023-04-29T02:56:32.066Z,5.78
2023-04-29T02:59:00.883Z,5.78
2023-04-29T03:01:33.307Z,5.80
2023-04-29T03:04:05.927Z,5.82
2023-04-29T03:06:37.303Z,5.84
2023-04-29T03:09:08.151Z,5.81
2023-04-29T03:11:40.712Z,5.80
2023-04-29T03:14:10.831Z,5.80
2023-04-29T03:16:40.763Z,5.80
2023-04-29T03:19:11.182Z,5.81
2023-04-29T03:21:41.570Z,5.81
2023-04-29T03:24:12.876Z,5.82
2023-04-29T03:26:43.557Z,5.85
2023-04-29T03:29:13.091Z,5.91
2023-04-29T03:31:42.295Z,5.94
2023-04-29T03:34:13.311Z,5.97
2023-04-29T03:36:45.309Z,6.00
2023-04-29T03:39:17.836Z,6.02
2023-04-29T03:41:48.147Z,6.04
2023-04-29T03:44:17.581Z,6.05
2023-04-29T03:46:48.800Z,6.06
2023-04-29T03:49:19.673Z,6.07
2023-04-29T03:52:14.504Z,6.09
2023-04-29T03:54:46.449Z,6.11
2023-04-29T03:57:16.612Z,6.11
2023-04-29T03:59:46.409Z,6.11
2023-04-29T04:02:17.988Z,6.12
2023-04-29T04:04:48.394Z,6.12
2023-04-29T04:07:17.926Z,6.14
2023-04-29T04:10:21.178Z,6.20
2023-04-29T04:12:54.560Z,6.25
2023-04-29T04:15:27.942Z,6.28
2023-04-29T04:18:00.010Z,6.34
2023-04-29T04:20:32.851Z,6.39
2023-04-29T04:23:01.865Z,6.45
2023-04-29T04:25:32.359Z,6.51
2023-04-29T04:28:14.152Z,6.59
2023-04-29T04:31:04.432Z,6.65
2023-04-29T04:33:34.994Z,6.71
2023-04-29T04:36:05.943Z,6.76
2023-04-29T04:38:36.650Z,6.85
2023-04-29T04:41:08.826Z,6.95
2023-04-29T04:43:41.310Z,7.03
2023-04-29T04:46:19.774Z,7.12
2023-04-29T04:49:07.658Z,7.24
2023-04-29T04:51:42.194Z,7.35
2023-04-29T04:54:12.787Z,7.45
2023-04-29T04:56:41.700Z,7.57
2023-04-29T04:59:12.561Z,7.70
2023-04-29T05:01:42.136Z,7.85
2023-04-29T05:04:12.897Z,8.02
2023-04-29T05:06:44.541Z,8.19
2023-04-29T05:09:16.208Z,8.33
2023-04-29T05:11:48.606Z,8.48
2023-04-29T05:14:19.180Z,8.62
2023-04-29T05:16:52.035Z,8.76
2023-04-29T05:19:24.544Z,8.86
2023-04-29T05:21:53.695Z,8.97
2023-04-29T05:24:23.089Z,9.15
2023-04-29T05:26:54.423Z,9.23
2023-04-29T05:29:23.366Z,9.20
2023-04-29T05:31:56.921Z,9.17
2023-04-29T05:34:26.292Z,9.16
2023-04-29T05:36:57.330Z,9.16
2023-04-29T05:39:29.684Z,9.14
2023-04-29T05:42:07.096Z,9.10
2023-04-29T05:44:43.622Z,9.06
2023-04-29T05:47:16.602Z,9.04
2023-04-29T05:49:45.821Z,9.09
2023-04-29T05:52:16.783Z,9.12
2023-04-29T05:54:48.559Z,9.18
2023-04-29T05:57:23.081Z,9.20
2023-04-29T05:59:55.607Z,9.22
2023-04-29T06:02:24.742Z,9.23
2023-04-29T06:04:55.754Z,9.20
2023-04-29T06:07:44.436Z,9.22
2023-04-29T06:10:36.737Z,9.25
2023-04-29T06:13:05.719Z,9.33
2023-04-29T06:15:38.120Z,9.43
2023-04-29T06:18:07.405Z,9.52
2023-04-29T06:20:37.856Z,9.62
2023-04-29T06:23:07.986Z,9.73
2023-04-29T06:25:40.129Z,9.85
2023-04-29T06:28:11.265Z,9.97
2023-04-29T06:30:41.157Z,10.07
2023-04-29T06:33:13.429Z,10.21
2023-04-29T06:35:42.771Z,10.34
2023-04-29T06:38:12.921Z,10.46
2023-04-29T06:41:06.264Z,10.59
2023-04-29T06:43:51.908Z,10.68
2023-04-29T06:47:01.440Z,10.73
2023-04-29T06:49:54.500Z,10.87
2023-04-29T06:52:25.279Z,11.10
2023-04-29T06:54:58.645Z,11.38
2023-04-29T06:57:30.224Z,11.74
2023-04-29T07:00:01.968Z,12.02
2023-04-29T07:02:35.426Z,12.17
2023-04-29T07:05:07.094Z,12.15
2023-04-29T07:07:39.199Z,12.15
2023-04-29T07:10:09.928Z,12.16
2023-04-29T07:12:42.423Z,12.13
2023-04-29T07:15:12.859Z,12.15
2023-04-29T07:17:43.256Z,12.23
2023-04-29T07:20:13.208Z,12.55
2023-04-29T07:22:43.130Z,13.72
2023-04-29T07:25:12.250Z,14.21
2023-04-29T07:27:41.872Z,14.46
2023-04-29T07:30:12.142Z,14.14
2023-04-29T07:32:41.376Z,13.91
2023-04-29T07:35:10.212Z,13.95
2023-04-29T07:37:40.642Z,14.67
2023-04-29T07:40:12.536Z,14.66
2023-04-29T07:42:47.898Z,14.34
2023-04-29T07:45:18.799Z,14.17
2023-04-29T07:47:52.584Z,14.38
2023-04-29T07:50:25.716Z,15.14
2023-04-29T07:52:58.283Z,16.83
2023-04-29T07:55:31.510Z,17.67
2023-04-29T07:58:01.843Z,17.30
2023-04-29T08:00:31.563Z,17.70
2023-04-29T08:03:06.737Z,18.13
2023-04-29T08:05:38.330Z,18.24
2023-04-29T08:08:08.960Z,18.06
2023-04-29T08:10:44.376Z,18.01
2023-04-29T08:13:13.148Z,18.25
2023-04-29T08:15:43.196Z,18.12
2023-04-29T08:18:12.731Z,18.04
2023-04-29T08:20:42.847Z,17.84
2023-04-29T08:23:12.080Z,17.54
2023-04-29T08:25:48.061Z,17.17
2023-04-29T08:28:20.619Z,16.86
2023-04-29T08:30:50.317Z,16.54
2023-04-29T08:33:22.854Z,16.26
2023-04-29T08:35:59.508Z,15.95
2023-04-29T08:38:32.698Z,15.88
2023-04-29T08:41:03.555Z,15.93
2023-04-29T08:43:35.794Z,15.95
2023-04-29T08:46:07.836Z,15.98
2023-04-29T08:48:42.517Z,16.01
2023-04-29T08:51:17.713Z,16.08
2023-04-29T08:54:57.152Z,16.17
2023-04-29T08:57:51.175Z,16.13
2023-04-29T09:00:25.677Z,16.05
2023-04-29T09:02:59.503Z,16.19
2023-04-29T09:05:33.054Z,16.24
2023-04-29T09:08:03.716Z,16.28
2023-04-29T09:10:34.311Z,16.26
2023-04-29T09:13:06.448Z,16.08
2023-04-29T09:15:43.247Z,15.86
2023-04-29T09:18:14.908Z,15.78
2023-04-29T09:20:45.103Z,15.91
2023-04-29T09:23:14.506Z,16.02
2023-04-29T09:25:55.420Z,16.15
2023-04-29T09:28:28.054Z,16.29
2023-04-29T09:30:59.001Z,16.33
2023-04-29T09:33:31.903Z,16.56
2023-04-29T09:36:04.973Z,17.01
2023-04-29T09:38:35.090Z,17.28
2023-04-29T09:41:12.464Z,17.44
2023-04-29T09:43:43.352Z,17.59
2023-04-29T09:46:18.441Z,17.44
2023-04-29T09:48:48.617Z,17.38
2023-04-29T09:51:21.754Z,17.65
2023-04-29T09:54:18.722Z,18.11
2023-04-29T09:56:52.151Z,18.75
2023-04-29T09:59:22.478Z,19.39
2023-04-29T10:01:55.077Z,19.44
2023-04-29T10:04:28.019Z,19.03
2023-04-29T10:06:59.442Z,18.99
2023-04-29T10:09:30.211Z,19.11
2023-04-29T10:12:02.559Z,19.10
2023-04-29T10:14:34.173Z,19.18
2023-04-29T10:17:06.379Z,19.30
2023-04-29T10:19:50.029Z,19.68
2023-04-29T10:22:33.703Z,19.94
2023-04-29T10:25:07.357Z,20.06
2023-04-29T10:27:40.623Z,19.92
2023-04-29T10:30:13.145Z,19.75
2023-04-29T10:32:51.101Z,19.38
2023-04-29T10:35:26.116Z,19.26
2023-04-29T10:37:57.804Z,19.15
2023-04-29T10:40:42.972Z,18.96
2023-04-29T10:43:13.315Z,18.69
2023-04-29T10:45:42.968Z,18.59
2023-04-29T10:48:13.658Z,18.58
2023-04-29T10:50:50.030Z,18.69
2023-04-29T10:54:08.515Z,18.79
2023-04-29T10:56:40.226Z,18.71
2023-04-29T10:59:16.105Z,18.63
2023-04-29T11:01:49.780Z,18.50
2023-04-29T11:04:22.028Z,18.28
2023-04-29T11:06:55.054Z,18.30
2023-04-29T11:09:28.652Z,18.36
2023-04-29T11:12:03.841Z,18.48
2023-04-29T11:14:33.961Z,18.57
2023-04-29T11:17:04.050Z,18.76
2023-04-29T11:19:35.035Z,19.14
2023-04-29T11:22:14.482Z,19.53
2023-04-29T11:25:01.007Z,19.95
2023-04-29T11:27:34.088Z,20.57
2023-04-29T11:30:05.848Z,20.90
2023-04-29T11:32:38.935Z,20.82
2023-04-29T11:35:09.465Z,20.70
2023-04-29T11:37:40.034Z,20.55
2023-04-29T11:40:10.330Z,20.49
2023-04-29T11:42:47.220Z,20.49
2023-04-29T11:45:19.563Z,20.55
2023-04-29T11:47:52.149Z,20.58
2023-04-29T11:50:24.544Z,20.38
2023-04-29T11:52:54.917Z,20.25
2023-04-29T11:55:26.135Z,20.22
2023-04-29T11:57:55.025Z,20.25
2023-04-29T12:00:25.770Z,20.18
2023-04-29T12:02:55.458Z,20.02
2023-04-29T12:05:26.843Z,19.91
2023-04-29T12:07:55.949Z,19.84
2023-04-29T12:10:25.175Z,19.75
2023-04-29T12:12:54.745Z,19.54
2023-04-29T12:15:24.304Z,19.45
2023-04-29T12:17:54.117Z,19.37
2023-04-29T12:20:26.553Z,19.27
2023-04-29T12:22:57.052Z,19.22
2023-04-29T12:25:30.616Z,19.25
2023-04-29T12:28:01.508Z,19.33
2023-04-29T12:30:31.301Z,19.37
2023-04-29T12:33:01.353Z,19.31
2023-04-29T12:35:32.398Z,19.16
2023-04-29T12:38:03.178Z,19.10
2023-04-29T12:40:34.342Z,19.14
2023-04-29T12:43:11.045Z,19.20
2023-04-29T12:45:44.227Z,19.33
2023-04-29T12:48:25.498Z,19.42
2023-04-29T12:51:02.308Z,19.39
2023-04-29T12:54:22.281Z,19.46
2023-04-29T12:56:53.754Z,19.47
2023-04-29T12:59:24.571Z,19.39
2023-04-29T13:01:53.669Z,19.28
2023-04-29T13:04:26.304Z,19.26
2023-04-29T13:07:15.260Z,19.29
2023-04-29T13:09:50.444Z,19.23
2023-04-29T13:12:20.195Z,19.19
2023-04-29T13:14:49.267Z,19.07
2023-04-29T13:17:19.648Z,19.03
2023-04-29T13:19:51.541Z,19.01
2023-04-29T13:22:22.096Z,19.07
2023-04-29T13:24:51.370Z,19.22
2023-04-29T13:27:21.360Z,19.39
2023-04-29T13:29:52.145Z,19.49
2023-04-29T13:32:24.714Z,19.59
2023-04-29T13:34:55.407Z,19.51
2023-04-29T13:37:24.692Z,19.50
2023-04-29T13:39:57.428Z,19.67
2023-04-29T13:42:27.604Z,19.64
2023-04-29T13:44:57.789Z,19.79
2023-04-29T13:47:31.198Z,19.73
2023-04-29T14:03:13.333Z,19.10
2023-04-29T14:05:43.289Z,19.01
2023-04-29T14:08:12.814Z,18.98
2023-04-29T14:10:51.717Z,18.99
2023-04-29T14:13:20.654Z,18.98
2023-04-29T14:15:49.505Z,18.94
2023-04-29T14:18:18.627Z,18.90
2023-04-29T14:21:04.507Z,18.87
2023-04-29T14:27:02.762Z,18.74
2023-04-29T14:29:32.019Z,18.79
2023-04-29T14:32:01.826Z,18.76
2023-04-29T14:34:31.388Z,18.68
2023-04-29T14:37:01.020Z,18.65
2023-04-29T14:39:33.198Z,18.58
2023-04-29T14:42:08.115Z,18.50
2023-04-29T14:44:39.039Z,18.36
2023-04-29T14:47:07.991Z,18.19
2023-04-29T14:49:38.499Z,18.05
2023-04-29T14:52:32.980Z,17.90
2023-04-29T14:55:01.940Z,17.69
2023-04-29T14:57:31.319Z,17.60
2023-04-29T15:00:01.849Z,17.55
2023-04-29T15:02:30.757Z,17.57
2023-04-29T15:05:01.392Z,17.66
2023-04-29T15:07:32.118Z,17.74
2023-04-29T15:10:04.398Z,17.74
2023-04-29T15:12:33.491Z,17.67
2023-04-29T15:15:02.290Z,17.56
2023-04-29T15:17:35.444Z,17.41
2023-04-29T15:20:06.849Z,17.25
2023-04-29T15:22:37.932Z,17.15
2023-04-29T15:25:14.170Z,17.07
2023-04-29T15:27:45.232Z,17.03
2023-04-29T15:30:17.086Z,17.03
2023-04-29T15:32:47.766Z,17.05
2023-04-29T15:35:18.191Z,17.10
2023-04-29T15:37:50.072Z,17.13
2023-04-29T15:40:18.840Z,17.16
2023-04-29T15:42:49.507Z,17.18
2023-04-29T15:45:18.770Z,17.19
2023-04-29T15:47:49.258Z,17.14
2023-04-29T15:50:19.213Z,17.04
2023-04-29T15:52:53.040Z,16.96
2023-04-29T15:55:23.341Z,16.90
2023-04-29T15:57:53.861Z,16.84
2023-04-29T16:00:24.279Z,16.80
2023-04-29T16:02:57.011Z,16.77
2023-04-29T16:05:27.338Z,16.75
2023-04-29T16:07:58.033Z,16.73
2023-04-29T16:10:28.379Z,16.73
2023-04-29T16:12:59.701Z,16.72
2023-04-29T16:15:29.940Z,16.70
2023-04-29T16:18:02.383Z,16.66
2023-04-29T16:20:32.658Z,16.62
2023-04-29T16:23:01.933Z,16.55
2023-04-29T16:25:31.826Z,16.47
2023-04-29T16:28:01.379Z,16.39
2023-04-29T16:30:30.921Z,16.32
2023-04-29T16:33:02.570Z,16.25
2023-04-29T16:35:33.677Z,16.22
2023-04-29T16:38:06.737Z,16.15
2023-04-29T16:40:38.157Z,16.08
2023-04-29T16:43:09.702Z,16.00
2023-04-29T16:45:39.932Z,15.91
2023-04-29T16:48:10.848Z,15.82
2023-04-29T16:50:41.216Z,15.74
2023-04-29T16:57:03.466Z,15.61
2023-04-29T16:59:36.099Z,15.60
2023-04-29T17:02:05.605Z,15.60
2023-04-29T17:04:35.162Z,15.58
2023-04-29T17:07:06.334Z,15.55
2023-04-29T17:09:37.171Z,15.52
2023-04-29T17:12:10.754Z,15.48
2023-04-29T17:14:40.616Z,15.46
2023-04-29T17:17:10.485Z,15.44
2023-04-29T17:19:41.287Z,15.40
2023-04-29T17:22:11.269Z,15.36
2023-04-29T17:24:42.220Z,15.30
2023-04-29T17:27:13.663Z,15.22
2023-04-29T17:29:44.843Z,15.14
2023-04-29T17:32:17.606Z,15.06
2023-04-29T17:34:48.884Z,14.98
2023-04-29T17:37:25.673Z,14.91
2023-04-29T17:39:56.618Z,14.85
2023-04-29T17:52:22.830Z,14.60
2023-04-29T18:04:46.187Z,14.55
2023-04-29T18:07:16.518Z,14.55
2023-04-29T18:09:48.241Z,14.54
2023-04-29T18:12:23.192Z,14.54
2023-04-29T18:14:54.123Z,14.53
2023-04-29T18:17:27.667Z,14.52
2023-04-29T19:17:58.919Z,13.82
2023-04-29T19:20:31.870Z,13.79
2023-04-29T19:23:09.173Z,13.76
2023-04-29T19:29:29.838Z,13.64
2023-04-29T19:32:04.476Z,13.61
2023-04-29T19:34:47.197Z,13.60
2023-04-29T19:37:21.682Z,13.59
2023-04-29T19:39:52.310Z,13.59
2023-04-29T19:42:25.738Z,13.60
2023-04-29T19:44:58.046Z,13.57
2023-04-29T19:47:31.790Z,13.54
2023-04-29T19:50:05.436Z,13.52
2023-04-29T19:52:42.558Z,13.50
2023-04-29T19:55:16.739Z,13.47
2023-04-29T19:57:47.885Z,13.43
2023-04-29T20:00:19.876Z,13.40
2023-04-29T20:02:55.472Z,13.35
2023-04-29T20:05:28.099Z,13.32
2023-04-29T20:07:59.022Z,13.30
2023-04-29T20:10:30.198Z,13.30
2023-04-29T20:13:00.470Z,13.29
2023-04-29T20:15:33.134Z,13.33
2023-04-29T20:18:06.375Z,13.36
2023-04-29T20:20:37.758Z,13.40
2023-04-29T20:23:09.658Z,13.42
2023-04-29T20:25:41.707Z,13.42
2023-04-29T20:28:11.436Z,13.38
2023-04-29T20:30:45.546Z,13.31
2023-04-29T20:33:16.473Z,13.27
2023-04-29T20:35:47.433Z,13.27
2023-04-29T20:38:21.903Z,13.26
2023-04-29T20:40:55.178Z,13.22
2023-04-29T20:43:31.509Z,13.15
2023-04-29T20:46:07.224Z,13.08
2023-04-29T20:48:41.967Z,13.03
2023-04-29T20:51:14.110Z,12.99
2023-04-29T20:54:32.921Z,13.02
2023-04-29T20:57:06.028Z,13.14
2023-04-29T20:59:36.640Z,13.21
2023-04-29T21:02:05.919Z,13.27
2023-04-29T21:04:38.458Z,13.25
2023-04-29T21:07:09.193Z,13.18
2023-04-29T21:09:39.245Z,13.09
2023-04-29T21:12:08.835Z,12.98
2023-04-29T21:14:42.179Z,12.92
2023-04-29T21:17:12.429Z,12.88
2023-04-29T21:19:42.989Z,12.86
2023-04-29T21:22:13.440Z,12.80
2023-04-29T21:24:43.924Z,12.79
2023-04-29T21:27:14.236Z,12.74
2023-04-29T21:29:44.558Z,12.65
2023-04-29T21:32:18.742Z,12.57
2023-04-29T21:34:48.816Z,12.52
2023-04-29T21:37:18.679Z,12.46
2023-04-29T21:40:04.720Z,12.42
2023-04-29T21:42:38.255Z,12.39
2023-04-29T21:45:07.691Z,12.35
2023-04-29T21:47:39.044Z,12.29
2023-04-29T21:50:11.121Z,12.26
2023-04-29T21:52:42.866Z,12.22
2023-04-29T21:55:17.552Z,12.21
2023-04-29T21:57:47.636Z,12.23
2023-04-29T22:00:31.605Z,12.23
2023-04-29T22:03:01.950Z,12.17
2023-04-29T22:05:33.018Z,12.07
2023-04-29T22:08:03.641Z,11.98
2023-04-29T22:10:34.871Z,11.91
2023-04-29T22:13:06.149Z,11.89
2023-04-29T22:15:36.713Z,11.88
2023-04-29T22:18:07.050Z,11.90
2023-04-29T22:20:38.066Z,11.92
2023-04-29T22:23:07.597Z,11.93
2023-04-29T22:25:44.818Z,11.94
2023-04-29T22:28:17.064Z,11.93
2023-04-29T22:30:49.464Z,11.91
2023-04-29T22:33:22.096Z,11.91
2023-04-29T22:35:54.637Z,11.90
2023-04-29T22:38:24.250Z,11.91
2023-04-29T22:40:54.282Z,11.90
2023-04-29T22:43:24.703Z,11.88
2023-04-29T22:45:57.584Z,11.87
2023-04-29T22:48:30.919Z,11.85
2023-04-29T22:51:03.179Z,11.81
2023-04-29T22:53:36.066Z,11.81
2023-04-29T22:56:08.312Z,11.81
2023-04-29T22:58:40.148Z,11.84
2023-04-29T23:01:12.185Z,11.80
2023-04-29T23:03:45.366Z,11.78
2023-04-29T23:06:17.334Z,11.82
2023-04-29T23:08:50.678Z,11.83
2023-04-29T23:11:20.336Z,11.87
2023-04-29T23:13:50.362Z,11.91
2023-04-29T23:16:27.001Z,11.95
2023-04-29T23:18:58.577Z,11.93
2023-04-29T23:21:30.763Z,11.99
2023-04-29T23:24:03.430Z,12.12
2023-04-29T23:26:34.369Z,12.17
2023-04-29T23:29:04.690Z,12.20
2023-04-29T23:31:34.126Z,12.21
2023-04-29T23:34:03.408Z,12.21
2023-04-29T23:36:34.951Z,12.17
2023-04-29T23:39:04.176Z,12.16
2023-04-29T23:41:35.093Z,12.13
2023-04-29T23:44:05.074Z,12.03
2023-04-29T23:46:35.106Z,11.93
2023-04-29T23:49:05.971Z,11.84
2023-04-29T23:51:36.688Z,11.72
2023-04-29T23:54:32.276Z,11.59
2023-04-29T23:57:04.589Z,11.49
2023-04-29T23:59:33.668Z,11.36
